Time;durP1;ratioP1;P1;durP2;ratioP2;P2;SDS_P1;SDS_P2;PMS_P1;PMS_P2;Temp;Humidity;BMP_temperature;BMP_pressure;BME280_temperature;BME280_humidity;BME280_pressure;Samples;Min_cycle;Max_cycle;Signal;HPM_P1;HPM_P2
2024/01/12 00:00:22;;;;;;;0.60;0.60;;;;;;;;;;4977843;28;20184;-87
2024/01/12 00:02:48;;;;;;;0.60;0.60;;;;;;;;;;4975006;28;20046;-87
2024/01/12 00:05:15;;;;;;;0.50;0.50;;;;;;;;;;4997291;28;20039;-88
2024/01/12 00:07:41;;;;;;;0.50;0.50;;;;;;;;;;4973881;28;20042;-88
2024/01/12 00:10:10;;;;;;;0.55;0.55;;;;;;;;;;4988311;28;20053;-88
2024/01/12 00:12:36;;;;;;;0.60;0.60;;;;;;;;;;4973538;28;20042;-89
2024/01/12 00:15:05;;;;;;;0.43;0.43;;;;;;;;;;4983397;28;20157;-89
2024/01/12 00:17:31;;;;;;;0.60;0.60;;;;;;;;;;4984256;28;20054;-87
2024/01/12 00:19:58;;;;;;;0.50;0.50;;;;;;;;;;4998393;28;20088;-88
2024/01/12 00:22:24;;;;;;;0.50;0.50;;;;;;;;;;4975521;28;20039;-89
2024/01/12 00:24:54;;;;;;;0.50;0.50;;;;;;;;;;4980016;28;20382;-89
2024/01/12 00:27:20;;;;;;;0.40;0.40;;;;;;;;;;4992535;28;20038;-88
2024/01/12 00:29:46;;;;;;;0.50;0.50;;;;;;;;;;4981336;28;20120;-88
2024/01/12 00:32:12;;;;;;;0.60;0.60;;;;;;;;;;4997669;28;20042;-89
2024/01/12 00:34:38;;;;;;;0.60;0.60;;;;;;;;;;4977674;28;20043;-89
2024/01/12 00:37:04;;;;;;;0.50;0.50;;;;;;;;;;4962045;28;20371;-89
2024/01/12 00:39:54;;;;;;;0.63;0.63;;;;;;;;;;4978072;28;20034;-88
2024/01/12 00:42:20;;;;;;;0.60;0.60;;;;;;;;;;4960965;28;20133;-88
2024/01/12 00:44:46;;;;;;;0.80;0.80;;;;;;;;;;4984176;28;20098;-88
2024/01/12 00:47:15;;;;;;;0.60;0.60;;;;;;;;;;4983785;28;20469;-87
2024/01/12 00:49:41;;;;;;;0.50;0.50;;;;;;;;;;4985066;28;20066;-87
2024/01/12 00:52:07;;;;;;;0.50;0.50;;;;;;;;;;4991980;28;20038;-89
2024/01/12 00:54:33;;;;;;;0.50;0.50;;;;;;;;;;4972156;28;20093;-88
2024/01/12 00:56:59;;;;;;;0.50;0.50;;;;;;;;;;4977262;28;20042;-88
2024/01/12 00:59:25;;;;;;;0.60;0.60;;;;;;;;;;4980353;28;20041;-89
2024/01/12 01:01:56;;;;;;;0.50;0.50;;;;;;;;;;4981329;28;20122;-89
2024/01/12 01:04:22;;;;;;;0.50;0.50;;;;;;;;;;4982739;28;20035;-88
2024/01/12 01:06:48;;;;;;;0.50;0.50;;;;;;;;;;4982563;28;20035;-88
2024/01/12 01:09:14;;;;;;;0.52;0.52;;;;;;;;;;4976701;28;20545;-89
2024/01/12 01:11:40;;;;;;;0.50;0.50;;;;;;;;;;4973867;28;20039;-89
2024/01/12 01:14:06;;;;;;;0.60;0.60;;;;;;;;;;4976884;28;20086;-89
2024/01/12 01:16:32;;;;;;;0.50;0.50;;;;;;;;;;4976958;28;20050;-88
2024/01/12 01:18:58;;;;;;;0.55;0.55;;;;;;;;;;4994611;28;20042;-89
2024/01/12 01:21:25;;;;;;;0.50;0.50;;;;;;;;;;4980346;28;20050;-89
2024/01/12 01:23:51;;;;;;;0.60;0.60;;;;;;;;;;4979136;28;20109;-87
2024/01/12 01:26:23;;;;;;;0.85;0.82;;;;;;;;;;4980129;28;20066;-91
2024/01/12 01:28:49;;;;;;;0.50;0.50;;;;;;;;;;4979921;28;20030;-88
2024/01/12 01:31:15;;;;;;;0.50;0.50;;;;;;;;;;4980101;28;20041;-88
2024/01/12 01:33:41;;;;;;;0.50;0.50;;;;;;;;;;4978870;28;20044;-88
2024/01/12 01:36:07;;;;;;;0.50;0.50;;;;;;;;;;4979252;28;20136;-89
2024/01/12 01:38:33;;;;;;;0.60;0.60;;;;;;;;;;4980633;28;20130;-88
2024/01/12 01:40:59;;;;;;;0.40;0.40;;;;;;;;;;4979605;28;20038;-88
2024/01/12 01:43:25;;;;;;;0.50;0.50;;;;;;;;;;4979020;28;20052;-88
2024/01/12 01:45:52;;;;;;;0.50;0.50;;;;;;;;;;4976613;28;20118;-88
2024/01/12 01:48:18;;;;;;;0.50;0.50;;;;;;;;;;4960246;28;20034;-88
2024/01/12 01:50:44;;;;;;;0.50;0.50;;;;;;;;;;4960610;28;20494;-88
2024/01/12 01:53:10;;;;;;;0.50;0.50;;;;;;;;;;4960340;28;20035;-88
2024/01/12 01:55:36;;;;;;;0.52;0.52;;;;;;;;;;4959877;28;20057;-88
2024/01/12 01:58:03;;;;;;;0.47;0.47;;;;;;;;;;4966031;28;20053;-89
2024/01/12 02:00:32;;;;;;;0.50;0.50;;;;;;;;;;4976064;28;20074;-88
2024/01/12 02:02:58;;;;;;;0.60;0.60;;;;;;;;;;4975836;28;20043;-88
2024/01/12 02:05:24;;;;;;;0.50;0.50;;;;;;;;;;4976194;28;20405;-89
2024/01/12 02:07:50;;;;;;;0.50;0.50;;;;;;;;;;4975400;28;20126;-87
2024/01/12 02:10:16;;;;;;;0.50;0.50;;;;;;;;;;4976516;28;20039;-88
2024/01/12 02:12:42;;;;;;;0.60;0.60;;;;;;;;;;4975364;28;20105;-88
2024/01/12 02:15:10;;;;;;;0.50;0.50;;;;;;;;;;4975206;28;20050;-88
2024/01/12 02:17:36;;;;;;;0.50;0.50;;;;;;;;;;4975512;28;20047;-88
2024/01/12 02:20:05;;;;;;;0.50;0.50;;;;;;;;;;4968784;28;20047;-88
2024/01/12 02:22:35;;;;;;;0.50;0.50;;;;;;;;;;4959485;28;20133;-88
2024/01/12 02:25:01;;;;;;;0.60;0.60;;;;;;;;;;4975534;28;20046;-88
2024/01/12 02:27:27;;;;;;;0.50;0.50;;;;;;;;;;4960387;28;20122;-87
2024/01/12 02:29:53;;;;;;;0.52;0.52;;;;;;;;;;4959677;28;20038;-89
2024/01/12 02:32:21;;;;;;;0.50;0.50;;;;;;;;;;4959212;28;20062;-89
2024/01/12 02:34:47;;;;;;;0.50;0.50;;;;;;;;;;4959465;28;20042;-88
2024/01/12 02:37:13;;;;;;;0.50;0.50;;;;;;;;;;4960002;28;20556;-89
2024/01/12 02:39:39;;;;;;;0.50;0.50;;;;;;;;;;4959172;28;20042;-88
2024/01/12 02:42:05;;;;;;;0.55;0.55;;;;;;;;;;4975493;28;20081;-88
2024/01/12 02:44:31;;;;;;;0.50;0.50;;;;;;;;;;4959243;28;20465;-89
2024/01/12 02:46:57;;;;;;;0.60;0.60;;;;;;;;;;4984746;28;20042;-88
2024/01/12 02:49:23;;;;;;;0.50;0.50;;;;;;;;;;5014224;28;20108;-89
2024/01/12 02:51:49;;;;;;;0.40;0.40;;;;;;;;;;5013878;28;20046;-88
2024/01/12 02:54:15;;;;;;;0.50;0.50;;;;;;;;;;4997865;28;20046;-89
2024/01/12 02:56:41;;;;;;;0.60;0.60;;;;;;;;;;4998117;28;20049;-88
2024/01/12 02:59:07;;;;;;;0.50;0.50;;;;;;;;;;4997908;28;20045;-88
2024/01/12 03:01:34;;;;;;;0.50;0.50;;;;;;;;;;4988930;28;20039;-88
2024/01/12 03:04:00;;;;;;;0.55;0.55;;;;;;;;;;4958264;28;20102;-88
2024/01/12 03:06:26;;;;;;;0.50;0.50;;;;;;;;;;4958560;28;20398;-89
2024/01/12 03:08:52;;;;;;;0.50;0.50;;;;;;;;;;4958118;28;20049;-89
2024/01/12 03:11:18;;;;;;;0.50;0.50;;;;;;;;;;4958415;28;20047;-89
2024/01/12 03:13:44;;;;;;;0.60;0.60;;;;;;;;;;4958163;28;20078;-88
2024/01/12 03:16:21;;;;;;;0.60;0.60;;;;;;;;;;4959095;28;20522;-88
2024/01/12 03:18:48;;;;;;;0.50;0.50;;;;;;;;;;4969197;28;20528;-88
2024/01/12 03:21:14;;;;;;;0.60;0.60;;;;;;;;;;4974980;28;20051;-88
2024/01/12 03:23:40;;;;;;;0.50;0.50;;;;;;;;;;4974015;28;20136;-88
2024/01/12 03:26:08;;;;;;;0.50;0.50;;;;;;;;;;4974543;28;20553;-88
2024/01/12 03:28:34;;;;;;;0.50;0.50;;;;;;;;;;4974619;28;20043;-87
2024/01/12 03:31:01;;;;;;;0.50;0.50;;;;;;;;;;4974601;28;20402;-89
2024/01/12 03:33:28;;;;;;;0.55;0.55;;;;;;;;;;4974203;28;20085;-88
2024/01/12 03:35:55;;;;;;;0.50;0.50;;;;;;;;;;4974310;28;20129;-88
2024/01/12 03:38:21;;;;;;;0.50;0.50;;;;;;;;;;4958367;28;20047;-89
2024/01/12 03:40:47;;;;;;;0.50;0.50;;;;;;;;;;4958220;28;20057;-88
2024/01/12 03:43:13;;;;;;;0.50;0.50;;;;;;;;;;4957822;28;20518;-88
2024/01/12 03:45:39;;;;;;;0.50;0.50;;;;;;;;;;4958135;28;20046;-88
2024/01/12 03:48:06;;;;;;;0.50;0.50;;;;;;;;;;4958050;28;20043;-88
2024/01/12 03:50:32;;;;;;;0.60;0.60;;;;;;;;;;4985031;28;20046;-88
2024/01/12 03:52:58;;;;;;;0.50;0.50;;;;;;;;;;4976942;28;20389;-87
2024/01/12 03:55:24;;;;;;;0.40;0.40;;;;;;;;;;4977793;28;20053;-87
2024/01/12 03:57:50;;;;;;;0.50;0.50;;;;;;;;;;4977472;28;20043;-87
2024/01/12 04:00:16;;;;;;;0.60;0.60;;;;;;;;;;4982232;28;20473;-89
2024/01/12 04:02:42;;;;;;;0.50;0.50;;;;;;;;;;4975719;28;20045;-89
2024/01/12 04:05:09;;;;;;;0.50;0.50;;;;;;;;;;4981525;28;20042;-88
2024/01/12 04:07:35;;;;;;;0.50;0.50;;;;;;;;;;4980775;28;20042;-88
2024/01/12 04:10:06;;;;;;;0.50;0.50;;;;;;;;;;4996818;28;20050;-88
2024/01/12 04:12:32;;;;;;;0.50;0.50;;;;;;;;;;4981172;28;20073;-88
2024/01/12 04:14:58;;;;;;;0.50;0.50;;;;;;;;;;4981281;28;20042;-88
2024/01/12 04:17:24;;;;;;;0.50;0.50;;;;;;;;;;4980851;28;20043;-87
2024/01/12 04:19:50;;;;;;;0.50;0.50;;;;;;;;;;4996834;28;20072;-87
2024/01/12 04:22:16;;;;;;;0.57;0.57;;;;;;;;;;4980821;28;20564;-88
2024/01/12 04:24:42;;;;;;;0.50;0.50;;;;;;;;;;4980927;28;20042;-88
2024/01/12 04:27:08;;;;;;;0.50;0.50;;;;;;;;;;4996463;28;20057;-88
2024/01/12 04:29:34;;;;;;;0.50;0.50;;;;;;;;;;4980866;28;20049;-88
2024/01/12 04:32:00;;;;;;;0.50;0.50;;;;;;;;;;4996681;28;20561;-87
2024/01/12 04:34:26;;;;;;;0.50;0.50;;;;;;;;;;4997016;28;20105;-88
2024/01/12 04:36:55;;;;;;;0.50;0.50;;;;;;;;;;4980673;28;20046;-88
2024/01/12 04:39:21;;;;;;;0.60;0.60;;;;;;;;;;4993475;28;20065;-88
2024/01/12 04:41:47;;;;;;;0.52;0.52;;;;;;;;;;4961698;28;20550;-87
2024/01/12 04:44:13;;;;;;;0.50;0.50;;;;;;;;;;4960584;28;20506;-88
2024/01/12 04:46:45;;;;;;;0.50;0.50;;;;;;;;;;4961246;28;20043;-88
2024/01/12 04:49:11;;;;;;;0.50;0.50;;;;;;;;;;4993941;28;20043;-87
2024/01/12 04:51:37;;;;;;;0.50;0.50;;;;;;;;;;4981035;28;20046;-89
2024/01/12 04:54:03;;;;;;;0.50;0.50;;;;;;;;;;4980326;28;20581;-89
2024/01/12 04:56:29;;;;;;;0.47;0.47;;;;;;;;;;4980670;28;20050;-89
2024/01/12 04:58:55;;;;;;;0.60;0.60;;;;;;;;;;4967544;28;20043;-89
2024/01/12 05:01:21;;;;;;;0.50;0.50;;;;;;;;;;4976551;28;20122;-89
2024/01/12 05:03:47;;;;;;;0.50;0.50;;;;;;;;;;4984157;28;20436;-87
2024/01/12 05:06:13;;;;;;;0.60;0.60;;;;;;;;;;4979996;28;20077;-88
2024/01/12 05:08:39;;;;;;;0.60;0.60;;;;;;;;;;4979686;28;20076;-88
2024/01/12 05:11:05;;;;;;;0.45;0.45;;;;;;;;;;4976655;28;20130;-89
2024/01/12 05:13:31;;;;;;;0.50;0.50;;;;;;;;;;4959806;28;20058;-89
2024/01/12 05:15:57;;;;;;;0.50;0.50;;;;;;;;;;4977348;28;20049;-88
2024/01/12 05:18:23;;;;;;;0.50;0.50;;;;;;;;;;4966035;28;20395;-88
2024/01/12 05:20:49;;;;;;;0.50;0.50;;;;;;;;;;4976275;28;20050;-89
2024/01/12 05:23:15;;;;;;;0.60;0.60;;;;;;;;;;4975791;28;20038;-88
2024/01/12 05:25:41;;;;;;;0.50;0.50;;;;;;;;;;4959507;28;20041;-88
2024/01/12 05:28:07;;;;;;;0.50;0.50;;;;;;;;;;4960040;28;20442;-88
2024/01/12 05:30:33;;;;;;;0.60;0.60;;;;;;;;;;4970856;28;20097;-89
2024/01/12 05:32:59;;;;;;;0.50;0.50;;;;;;;;;;4978696;28;20052;-89
2024/01/12 05:35:25;;;;;;;0.50;0.50;;;;;;;;;;4978534;28;20129;-87
2024/01/12 05:37:52;;;;;;;0.50;0.50;;;;;;;;;;4979143;28;20046;-87
2024/01/12 05:40:18;;;;;;;0.50;0.50;;;;;;;;;;4995377;28;20455;-87
2024/01/12 05:42:44;;;;;;;0.52;0.52;;;;;;;;;;4976274;28;20509;-87
2024/01/12 05:45:10;;;;;;;0.60;0.60;;;;;;;;;;4975396;28;20109;-88
2024/01/12 05:47:37;;;;;;;0.52;0.52;;;;;;;;;;4963207;28;20476;-88
2024/01/12 05:50:08;;;;;;;0.50;0.50;;;;;;;;;;4970879;28;20089;-87
2024/01/12 05:52:35;;;;;;;0.50;0.50;;;;;;;;;;4959281;28;20135;-87
2024/01/12 05:55:02;;;;;;;0.50;0.50;;;;;;;;;;4958792;28;20043;-88
2024/01/12 05:57:28;;;;;;;0.50;0.50;;;;;;;;;;4959635;28;20038;-88
2024/01/12 05:59:54;;;;;;;0.50;0.50;;;;;;;;;;4960342;28;20053;-89
2024/01/12 06:02:20;;;;;;;0.50;0.50;;;;;;;;;;4988953;28;20070;-88
2024/01/12 06:04:45;;;;;;;0.50;0.50;;;;;;;;;;4958826;28;20113;-88
2024/01/12 06:07:12;;;;;;;0.50;0.50;;;;;;;;;;4982669;28;20039;-89
2024/01/12 06:09:37;;;;;;;0.50;0.50;;;;;;;;;;4978641;28;20045;-89
2024/01/12 06:12:04;;;;;;;0.50;0.50;;;;;;;;;;4978127;28;20039;-87
2024/01/12 06:14:30;;;;;;;0.50;0.50;;;;;;;;;;4980083;28;20497;-88
2024/01/12 06:16:56;;;;;;;0.43;0.43;;;;;;;;;;4959104;28;20038;-88
2024/01/12 06:19:22;;;;;;;0.50;0.50;;;;;;;;;;4962811;28;20505;-88
2024/01/12 06:21:48;;;;;;;0.50;0.50;;;;;;;;;;4958981;28;20050;-88
2024/01/12 06:24:14;;;;;;;0.50;0.50;;;;;;;;;;4974104;28;20057;-88
2024/01/12 06:26:42;;;;;;;0.50;0.50;;;;;;;;;;4986537;28;20643;-89
2024/01/12 06:29:08;;;;;;;0.50;0.50;;;;;;;;;;4970676;28;20445;-89
2024/01/12 06:31:34;;;;;;;0.40;0.40;;;;;;;;;;4974905;28;20046;-89
2024/01/12 06:34:00;;;;;;;0.50;0.50;;;;;;;;;;4965342;28;20043;-88
2024/01/12 06:36:26;;;;;;;0.50;0.50;;;;;;;;;;4975027;28;20050;-88
2024/01/12 06:38:52;;;;;;;0.50;0.50;;;;;;;;;;4972587;28;20049;-88
2024/01/12 06:41:18;;;;;;;0.50;0.50;;;;;;;;;;4958352;28;20053;-90
2024/01/12 06:43:44;;;;;;;0.50;0.50;;;;;;;;;;4958116;28;20058;-88
2024/01/12 06:46:10;;;;;;;0.60;0.60;;;;;;;;;;4959253;28;20078;-87
2024/01/12 06:48:37;;;;;;;0.50;0.50;;;;;;;;;;4974098;28;20039;-88
2024/01/12 06:51:03;;;;;;;0.50;0.50;;;;;;;;;;4974344;28;20506;-89
2024/01/12 06:53:29;;;;;;;0.50;0.50;;;;;;;;;;4968150;28;20046;-89
2024/01/12 06:55:55;;;;;;;0.50;0.50;;;;;;;;;;4976911;28;20081;-88
2024/01/12 06:58:21;;;;;;;0.50;0.50;;;;;;;;;;4977613;28;20436;-88
2024/01/12 07:00:47;;;;;;;0.50;0.50;;;;;;;;;;4972203;28;20044;-88
2024/01/12 07:03:13;;;;;;;0.40;0.40;;;;;;;;;;4973807;28;20039;-89
2024/01/12 07:05:39;;;;;;;0.60;0.60;;;;;;;;;;4957956;28;20042;-89
2024/01/12 07:08:07;;;;;;;0.50;0.50;;;;;;;;;;4973737;28;20043;-87
2024/01/12 07:10:33;;;;;;;0.60;0.60;;;;;;;;;;4958061;28;20042;-88
2024/01/12 07:12:59;;;;;;;0.50;0.50;;;;;;;;;;4957763;28;20050;-88
2024/01/12 07:15:25;;;;;;;0.50;0.50;;;;;;;;;;4975982;28;20057;-87
2024/01/12 07:17:51;;;;;;;0.50;0.50;;;;;;;;;;4979789;28;20414;-87
2024/01/12 07:20:17;;;;;;;0.60;0.60;;;;;;;;;;4962939;28;20042;-87
2024/01/12 07:22:45;;;;;;;0.50;0.50;;;;;;;;;;4976987;28;20042;-87
2024/01/12 07:25:11;;;;;;;0.50;0.50;;;;;;;;;;4993712;28;20046;-88
2024/01/12 07:27:37;;;;;;;0.50;0.50;;;;;;;;;;4977370;28;20050;-88
2024/01/12 07:30:07;;;;;;;0.50;0.50;;;;;;;;;;4981076;28;20070;-88
2024/01/12 07:32:34;;;;;;;0.50;0.50;;;;;;;;;;4976781;28;20043;-87
2024/01/12 07:35:00;;;;;;;0.50;0.50;;;;;;;;;;4957622;28;20074;-88
2024/01/12 07:37:26;;;;;;;0.50;0.50;;;;;;;;;;4972354;28;20042;-88
2024/01/12 07:39:52;;;;;;;0.50;0.50;;;;;;;;;;4961039;28;20053;-88
2024/01/12 07:42:18;;;;;;;0.50;0.50;;;;;;;;;;4973902;28;20046;-88
2024/01/12 07:44:44;;;;;;;0.50;0.50;;;;;;;;;;4973810;28;20050;-88
2024/01/12 07:47:10;;;;;;;0.50;0.50;;;;;;;;;;4957353;28;20421;-88
2024/01/12 07:49:36;;;;;;;0.50;0.50;;;;;;;;;;4957590;28;20133;-88
2024/01/12 07:52:02;;;;;;;0.60;0.60;;;;;;;;;;4957532;28;20532;-87
2024/01/12 07:54:28;;;;;;;0.60;0.60;;;;;;;;;;4961091;28;20044;-88
2024/01/12 07:56:54;;;;;;;0.60;0.60;;;;;;;;;;4974566;28;20039;-88
2024/01/12 07:59:20;;;;;;;0.50;0.50;;;;;;;;;;4973505;28;20093;-88
2024/01/12 08:01:51;;;;;;;0.60;0.60;;;;;;;;;;4969306;28;20042;-85
2024/01/12 08:04:20;;;;;;;0.60;0.60;;;;;;;;;;4978651;28;20035;-85
2024/01/12 08:06:46;;;;;;;0.50;0.50;;;;;;;;;;4968601;28;20043;-85
2024/01/12 08:09:13;;;;;;;0.50;0.50;;;;;;;;;;4965919;28;20050;-85
2024/01/12 08:11:39;;;;;;;0.50;0.50;;;;;;;;;;4971017;28;20035;-86
2024/01/12 08:14:05;;;;;;;0.50;0.50;;;;;;;;;;4967003;28;20090;-86
2024/01/12 08:16:32;;;;;;;0.60;0.60;;;;;;;;;;4983983;28;20046;-86
2024/01/12 08:18:59;;;;;;;0.50;0.50;;;;;;;;;;4969331;28;20055;-86
2024/01/12 08:21:25;;;;;;;0.50;0.50;;;;;;;;;;4980991;28;20043;-86
2024/01/12 08:23:51;;;;;;;0.50;0.50;;;;;;;;;;4973842;28;20405;-85
2024/01/12 08:26:19;;;;;;;0.50;0.50;;;;;;;;;;4965494;28;20126;-87
2024/01/12 08:28:54;;;;;;;0.60;0.60;;;;;;;;;;4975158;28;20070;-85
2024/01/12 08:31:20;;;;;;;0.50;0.50;;;;;;;;;;4968423;28;20046;-86
2024/01/12 08:33:49;;;;;;;0.45;0.45;;;;;;;;;;4973308;28;20617;-86
2024/01/12 08:36:15;;;;;;;0.47;0.47;;;;;;;;;;4969642;28;20046;-85
2024/01/12 08:38:41;;;;;;;0.60;0.60;;;;;;;;;;4980692;28;20042;-85
2024/01/12 08:41:07;;;;;;;0.50;0.50;;;;;;;;;;4969287;28;20081;-84
2024/01/12 08:43:33;;;;;;;0.50;0.50;;;;;;;;;;4983543;28;20067;-84
2024/01/12 08:45:59;;;;;;;0.50;0.50;;;;;;;;;;4984180;28;20445;-85
2024/01/12 08:48:25;;;;;;;0.55;0.55;;;;;;;;;;4975292;28;20031;-85
2024/01/12 08:50:51;;;;;;;0.50;0.50;;;;;;;;;;4973927;28;20474;-85
2024/01/12 08:53:17;;;;;;;0.50;0.50;;;;;;;;;;4974680;28;20043;-84
2024/01/12 08:55:43;;;;;;;0.50;0.50;;;;;;;;;;4975134;28;20234;-85
2024/01/12 08:58:10;;;;;;;0.50;0.50;;;;;;;;;;4994805;28;20045;-84
2024/01/12 09:00:36;;;;;;;0.45;0.45;;;;;;;;;;4976586;28;20085;-84
2024/01/12 09:03:04;;;;;;;0.50;0.50;;;;;;;;;;4966755;28;20161;-85
2024/01/12 09:05:31;;;;;;;0.50;0.50;;;;;;;;;;4996145;28;20042;-85
2024/01/12 09:07:57;;;;;;;0.60;0.60;;;;;;;;;;4982302;28;20046;-85
2024/01/12 09:10:23;;;;;;;0.55;0.55;;;;;;;;;;4975287;28;20043;-85
2024/01/12 09:12:49;;;;;;;0.50;0.50;;;;;;;;;;4985855;28;21442;-85
2024/01/12 09:15:15;;;;;;;0.50;0.50;;;;;;;;;;4961898;28;20497;-84
2024/01/12 09:17:41;;;;;;;0.50;0.50;;;;;;;;;;4974601;28;20516;-85
2024/01/12 09:20:08;;;;;;;0.50;0.50;;;;;;;;;;4975401;28;20493;-84
2024/01/12 09:22:34;;;;;;;0.50;0.50;;;;;;;;;;4977080;28;20046;-85
2024/01/12 09:25:00;;;;;;;0.50;0.50;;;;;;;;;;4973177;28;20042;-84
2024/01/12 09:27:28;;;;;;;0.50;0.50;;;;;;;;;;4977860;28;20046;-86
2024/01/12 09:29:54;;;;;;;0.50;0.50;;;;;;;;;;4978934;28;20038;-86
2024/01/12 09:32:20;;;;;;;0.52;0.52;;;;;;;;;;4971265;28;20038;-84
2024/01/12 09:34:46;;;;;;;0.60;0.60;;;;;;;;;;4978647;28;20466;-84
2024/01/12 09:37:12;;;;;;;0.50;0.50;;;;;;;;;;4973839;28;20544;-84
2024/01/12 09:39:38;;;;;;;0.50;0.50;;;;;;;;;;4986698;28;20042;-85
2024/01/12 09:42:08;;;;;;;0.40;0.40;;;;;;;;;;4993353;28;20409;-84
2024/01/12 09:44:37;;;;;;;0.50;0.50;;;;;;;;;;4974026;28;20050;-85
2024/01/12 09:47:03;;;;;;;0.75;0.75;;;;;;;;;;4965351;28;20085;-86
2024/01/12 09:49:32;;;;;;;0.50;0.50;;;;;;;;;;4983029;28;20046;-85
2024/01/12 09:52:01;;;;;;;0.50;0.50;;;;;;;;;;4981530;28;20405;-85
2024/01/12 09:54:27;;;;;;;0.50;0.50;;;;;;;;;;4973577;28;20046;-84
2024/01/12 09:56:54;;;;;;;0.55;0.55;;;;;;;;;;4976184;28;20046;-84
2024/01/12 09:59:22;;;;;;;0.50;0.50;;;;;;;;;;4976224;28;20178;-83
2024/01/12 10:01:51;;;;;;;0.50;0.50;;;;;;;;;;4973865;28;20082;-85
2024/01/12 10:04:17;;;;;;;0.50;0.50;;;;;;;;;;4978482;28;20061;-85
2024/01/12 10:06:47;;;;;;;0.50;0.50;;;;;;;;;;4993344;28;20038;-85
2024/01/12 10:09:13;;;;;;;0.50;0.50;;;;;;;;;;4966248;28;20102;-85
2024/01/12 10:11:40;;;;;;;0.50;0.50;;;;;;;;;;4965967;28;20046;-84
2024/01/12 10:14:06;;;;;;;0.50;0.50;;;;;;;;;;4966009;28;20098;-85
2024/01/12 10:16:32;;;;;;;0.50;0.50;;;;;;;;;;4973561;28;20047;-85
2024/01/12 10:18:59;;;;;;;0.57;0.57;;;;;;;;;;4974106;28;20379;-85
2024/01/12 10:21:25;;;;;;;0.52;0.52;;;;;;;;;;4973556;28;20391;-85
2024/01/12 10:24:02;;;;;;;0.50;0.50;;;;;;;;;;4972561;28;20047;-85
2024/01/12 10:26:28;;;;;;;0.50;0.50;;;;;;;;;;4973745;28;20046;-86
2024/01/12 10:28:54;;;;;;;0.50;0.50;;;;;;;;;;4957157;28;20129;-85
2024/01/12 10:31:22;;;;;;;0.50;0.50;;;;;;;;;;4973623;28;20490;-85
2024/01/12 10:33:48;;;;;;;0.50;0.50;;;;;;;;;;4968371;28;20050;-85
2024/01/12 10:36:22;;;;;;;0.43;0.43;;;;;;;;;;4969787;28;20475;-85
2024/01/12 10:38:50;;;;;;;0.50;0.50;;;;;;;;;;4973129;28;20046;-85
2024/01/12 10:41:20;;;;;;;0.45;0.45;;;;;;;;;;4974951;28;20050;-85
2024/01/12 10:43:49;;;;;;;0.60;0.60;;;;;;;;;;4973956;28;20060;-85
2024/01/12 10:46:17;;;;;;;0.50;0.50;;;;;;;;;;4983076;28;20045;-85
2024/01/12 10:48:51;;;;;;;0.50;0.50;;;;;;;;;;4991622;28;20041;-84
2024/01/12 10:51:19;;;;;;;0.50;0.50;;;;;;;;;;4981939;28;20039;-85
2024/01/12 10:54:00;;;;;;;0.50;0.50;;;;;;;;;;4969619;28;20046;-86
2024/01/12 10:56:29;;;;;;;0.50;0.50;;;;;;;;;;4967048;28;20038;-83
2024/01/12 10:58:55;;;;;;;0.40;0.40;;;;;;;;;;4976440;28;20062;-84
2024/01/12 11:01:21;;;;;;;0.50;0.50;;;;;;;;;;4972742;28;20375;-85
2024/01/12 11:03:48;;;;;;;0.50;0.50;;;;;;;;;;4964614;28;20047;-83
2024/01/12 11:06:16;;;;;;;0.50;0.50;;;;;;;;;;4992316;28;20042;-85
2024/01/12 11:08:42;;;;;;;0.57;0.57;;;;;;;;;;4973839;28;20498;-84
2024/01/12 11:11:09;;;;;;;0.50;0.50;;;;;;;;;;4966311;28;20069;-86
2024/01/12 11:13:36;;;;;;;0.50;0.50;;;;;;;;;;4969589;28;20049;-84
2024/01/12 11:16:03;;;;;;;0.50;0.50;;;;;;;;;;4975206;28;20077;-84
2024/01/12 11:18:30;;;;;;;0.50;0.50;;;;;;;;;;4972326;28;20051;-83
2024/01/12 11:21:01;;;;;;;0.50;0.50;;;;;;;;;;4976274;28;20093;-84
2024/01/12 11:23:27;;;;;;;0.50;0.50;;;;;;;;;;4979282;28;20054;-83
2024/01/12 11:25:53;;;;;;;0.50;0.50;;;;;;;;;;4971605;28;20568;-84
2024/01/12 11:28:19;;;;;;;0.50;0.50;;;;;;;;;;4971998;28;20405;-83
2024/01/12 11:30:49;;;;;;;0.60;0.60;;;;;;;;;;4958901;28;20039;-84
2024/01/12 11:33:20;;;;;;;0.50;0.50;;;;;;;;;;4964937;28;20047;-84
2024/01/12 11:35:51;;;;;;;0.50;0.50;;;;;;;;;;4980365;28;20069;-84
2024/01/12 11:38:18;;;;;;;0.55;0.55;;;;;;;;;;4973783;28;20049;-84
2024/01/12 11:40:48;;;;;;;0.50;0.50;;;;;;;;;;4972326;28;20408;-84
2024/01/12 11:43:17;;;;;;;0.50;0.50;;;;;;;;;;4955782;28;20043;-84
2024/01/12 11:45:44;;;;;;;0.50;0.50;;;;;;;;;;4958873;28;20041;-84
2024/01/12 11:48:14;;;;;;;0.50;0.50;;;;;;;;;;4972334;28;20481;-85
2024/01/12 11:50:41;;;;;;;0.50;0.50;;;;;;;;;;4959128;28;20474;-84
2024/01/12 11:53:08;;;;;;;0.50;0.50;;;;;;;;;;4975162;28;20057;-85
2024/01/12 11:55:38;;;;;;;0.50;0.50;;;;;;;;;;4971912;28;20039;-85
2024/01/12 11:58:04;;;;;;;0.50;0.50;;;;;;;;;;4956722;28;20133;-85
2024/01/12 12:00:30;;;;;;;0.45;0.45;;;;;;;;;;4956933;28;20106;-84
2024/01/12 12:02:56;;;;;;;0.50;0.50;;;;;;;;;;4971497;28;20047;-84
2024/01/12 12:05:22;;;;;;;0.50;0.50;;;;;;;;;;4955924;28;20057;-84
2024/01/12 12:07:48;;;;;;;0.50;0.50;;;;;;;;;;4955795;28;20054;-84
2024/01/12 12:10:14;;;;;;;0.50;0.50;;;;;;;;;;4956118;28;20508;-84
2024/01/12 12:12:40;;;;;;;0.50;0.50;;;;;;;;;;4955785;28;20043;-84
2024/01/12 12:15:07;;;;;;;0.50;0.50;;;;;;;;;;4981719;28;20045;-84
2024/01/12 12:17:52;;;;;;;0.50;0.50;;;;;;;;;;4965669;28;20035;-83
2024/01/12 12:20:18;;;;;;;0.40;0.40;;;;;;;;;;4984090;28;20052;-83
2024/01/12 12:22:45;;;;;;;0.50;0.50;;;;;;;;;;4977939;28;20039;-83
2024/01/12 12:25:12;;;;;;;0.50;0.50;;;;;;;;;;4959522;28;20493;-82
2024/01/12 12:27:42;;;;;;;0.50;0.50;;;;;;;;;;4982132;28;20137;-83
2024/01/12 12:30:08;;;;;;;0.50;0.50;;;;;;;;;;4976304;28;20526;-84
2024/01/12 12:32:34;;;;;;;0.40;0.40;;;;;;;;;;4979043;28;20043;-84
2024/01/12 12:35:11;;;;;;;0.50;0.50;;;;;;;;;;4995022;28;20103;-84
2024/01/12 12:37:37;;;;;;;0.47;0.47;;;;;;;;;;4958920;28;20047;-84
2024/01/12 12:40:08;;;;;;;0.50;0.50;;;;;;;;;;4960004;28;20049;-85
2024/01/12 12:42:34;;;;;;;0.50;0.50;;;;;;;;;;4975842;28;20042;-82
2024/01/12 12:45:00;;;;;;;0.50;0.50;;;;;;;;;;4984825;28;20117;-83
2024/01/12 12:47:26;;;;;;;0.50;0.50;;;;;;;;;;4997363;28;20094;-83
2024/01/12 12:49:52;;;;;;;0.50;0.50;;;;;;;;;;4970627;28;20577;-84
2024/01/12 12:52:19;;;;;;;0.60;0.60;;;;;;;;;;4988833;28;20130;-84
2024/01/12 12:54:44;;;;;;;0.50;0.50;;;;;;;;;;4976603;28;20042;-83
2024/01/12 12:57:11;;;;;;;0.50;0.50;;;;;;;;;;4981395;28;20100;-83
2024/01/12 12:59:37;;;;;;;0.50;0.50;;;;;;;;;;4990533;28;20129;-84
2024/01/12 13:02:10;;;;;;;0.40;0.40;;;;;;;;;;4978566;28;20130;-83
2024/01/12 13:04:47;;;;;;;0.50;0.50;;;;;;;;;;4962305;28;20047;-83
2024/01/12 13:07:13;;;;;;;0.50;0.50;;;;;;;;;;4979875;28;20435;-84
2024/01/12 13:09:39;;;;;;;0.50;0.50;;;;;;;;;;4999086;28;20081;-83
2024/01/12 13:12:15;;;;;;;0.50;0.50;;;;;;;;;;5005517;28;20050;-84
2024/01/12 13:14:41;;;;;;;0.40;0.40;;;;;;;;;;4962541;28;20497;-85
2024/01/12 13:17:07;;;;;;;0.50;0.50;;;;;;;;;;4985787;28;20400;-84
2024/01/12 13:19:33;;;;;;;0.60;0.60;;;;;;;;;;4970923;28;20047;-84
2024/01/12 13:22:00;;;;;;;0.40;0.40;;;;;;;;;;4970621;28;20039;-84
2024/01/12 13:24:28;;;;;;;0.50;0.50;;;;;;;;;;4973919;28;20106;-84
2024/01/12 13:26:54;;;;;;;0.50;0.50;;;;;;;;;;4976707;28;20042;-84
2024/01/12 13:29:20;;;;;;;0.50;0.50;;;;;;;;;;4987645;28;20038;-83
2024/01/12 13:31:46;;;;;;;0.43;0.43;;;;;;;;;;4993655;28;20038;-83
2024/01/12 13:34:15;;;;;;;0.50;0.50;;;;;;;;;;4988827;28;20049;-83
2024/01/12 13:36:44;;;;;;;0.50;0.50;;;;;;;;;;4998212;28;20046;-84
2024/01/12 13:39:10;;;;;;;0.50;0.50;;;;;;;;;;4997598;28;20042;-84
2024/01/12 13:41:38;;;;;;;0.50;0.50;;;;;;;;;;4997979;28;20046;-84
2024/01/12 13:44:04;;;;;;;0.50;0.50;;;;;;;;;;5013202;28;20045;-84
2024/01/12 13:46:30;;;;;;;0.40;0.40;;;;;;;;;;4997649;28;20069;-83
2024/01/12 13:48:56;;;;;;;0.50;0.50;;;;;;;;;;4998215;28;20069;-84
2024/01/12 13:51:23;;;;;;;0.50;0.50;;;;;;;;;;5000877;28;20041;-83
2024/01/12 13:53:49;;;;;;;0.50;0.50;;;;;;;;;;4974284;28;20046;-84
2024/01/12 13:56:15;;;;;;;0.50;0.50;;;;;;;;;;4958272;28;20051;-84
2024/01/12 13:58:43;;;;;;;0.50;0.50;;;;;;;;;;4973025;28;20070;-82
2024/01/12 14:01:10;;;;;;;0.50;0.50;;;;;;;;;;4978366;28;20492;-83
2024/01/12 14:03:58;;;;;;;0.50;0.50;;;;;;;;;;4967069;28;20070;-83
2024/01/12 14:06:25;;;;;;;0.50;0.50;;;;;;;;;;4958396;28;20046;-84
2024/01/12 14:08:52;;;;;;;0.50;0.50;;;;;;;;;;4975115;28;20056;-83
2024/01/12 14:11:21;;;;;;;0.50;0.50;;;;;;;;;;4974695;28;20848;-84
2024/01/12 14:13:47;;;;;;;0.50;0.50;;;;;;;;;;4988947;28;20053;-84
2024/01/12 14:16:14;;;;;;;0.50;0.50;;;;;;;;;;4982043;28;20046;-84
2024/01/12 14:18:40;;;;;;;0.50;0.50;;;;;;;;;;4977884;28;20042;-84
2024/01/12 14:21:07;;;;;;;0.50;0.50;;;;;;;;;;4974697;28;20047;-84
2024/01/12 14:23:49;;;;;;;0.50;0.50;;;;;;;;;;4969590;28;20497;-85
2024/01/12 14:26:16;;;;;;;0.50;0.50;;;;;;;;;;4957793;28;20045;-85
2024/01/12 14:28:42;;;;;;;0.50;0.50;;;;;;;;;;4958487;28;20038;-82
2024/01/12 14:31:08;;;;;;;0.60;0.60;;;;;;;;;;4958556;28;20474;-83
2024/01/12 14:33:34;;;;;;;0.50;0.50;;;;;;;;;;4973559;28;20043;-83
2024/01/12 14:36:04;;;;;;;0.50;0.50;;;;;;;;;;4960213;28;20042;-84
2024/01/12 14:38:30;;;;;;;0.50;0.50;;;;;;;;;;4989835;28;20034;-83
2024/01/12 14:41:15;;;;;;;0.50;0.50;;;;;;;;;;4966086;28;20046;-84